sensor_id;sensor_type;location;lat;lon;timestamp;P1;durP1;ratioP1;P2;durP2;ratioP2
16387;SDS011;8303;53.446;9.988;2023-06-26T04:43:12;91.57;;;86.20;;
16387;SDS011;8303;53.446;9.988;2023-06-26T04:45:39;84.28;;;79.10;;
16387;SDS011;8303;53.446;9.988;2023-06-26T04:48:05;78.72;;;73.80;;
16387;SDS011;8303;53.446;9.988;2023-06-26T04:50:33;82.68;;;77.43;;
16387;SDS011;8303;53.446;9.988;2023-06-26T04:53:00;85.28;;;80.13;;
16387;SDS011;8303;53.446;9.988;2023-06-26T04:57:58;103.25;;;97.22;;
16387;SDS011;8303;53.446;9.988;2023-06-26T05:00:26;104.72;;;98.68;;
16387;SDS011;8303;53.446;9.988;2023-06-26T05:02:53;100.50;;;94.80;;
16387;SDS011;8303;53.446;9.988;2023-06-26T05:05:25;110.78;;;104.30;;
16387;SDS011;8303;53.446;9.988;2023-06-26T05:07:53;90.75;;;85.40;;
16387;SDS011;8303;53.446;9.988;2023-06-26T05:10:20;85.65;;;80.65;;
16387;SDS011;8303;53.446;9.988;2023-06-26T05:12:48;89.82;;;84.22;;
16387;SDS011;8303;53.446;9.988;2023-06-26T05:15:15;92.05;;;86.50;;
16387;SDS011;8303;53.446;9.988;2023-06-26T05:17:43;92.70;;;87.53;;
16387;SDS011;8303;53.446;9.988;2023-06-26T05:20:10;88.82;;;83.53;;
16387;SDS011;8303;53.446;9.988;2023-06-26T05:22:38;88.97;;;83.93;;
16387;SDS011;8303;53.446;9.988;2023-06-26T05:25:06;91.68;;;86.43;;
16387;SDS011;8303;53.446;9.988;2023-06-26T05:27:35;89.72;;;84.72;;
16387;SDS011;8303;53.446;9.988;2023-06-26T05:30:03;91.72;;;86.63;;
16387;SDS011;8303;53.446;9.988;2023-06-26T05:32:30;86.28;;;81.03;;
16387;SDS011;8303;53.446;9.988;2023-06-26T05:35:02;84.85;;;79.57;;
16387;SDS011;8303;53.446;9.988;2023-06-26T05:37:29;77.22;;;72.82;;
16387;SDS011;8303;53.446;9.988;2023-06-26T05:39:58;77.43;;;72.88;;
16387;SDS011;8303;53.446;9.988;2023-06-26T05:42:26;78.78;;;74.28;;
16387;SDS011;8303;53.446;9.988;2023-06-26T05:44:53;74.47;;;69.40;;
16387;SDS011;8303;53.446;9.988;2023-06-26T05:47:19;73.22;;;68.95;;
16387;SDS011;8303;53.446;9.988;2023-06-26T05:49:47;61.13;;;57.28;;
16387;SDS011;8303;53.446;9.988;2023-06-26T05:52:15;53.03;;;49.83;;
16387;SDS011;8303;53.446;9.988;2023-06-26T05:54:43;67.30;;;63.50;;
16387;SDS011;8303;53.446;9.988;2023-06-26T05:57:10;39.05;;;36.63;;
16387;SDS011;8303;53.446;9.988;2023-06-26T05:59:40;42.00;;;39.38;;
16387;SDS011;8303;53.446;9.988;2023-06-26T06:02:09;35.38;;;32.83;;
16387;SDS011;8303;53.446;9.988;2023-06-26T06:04:35;37.90;;;35.47;;
16387;SDS011;8303;53.446;9.988;2023-06-26T06:07:03;35.28;;;32.90;;
16387;SDS011;8303;53.446;9.988;2023-06-26T06:09:32;37.30;;;34.78;;
16387;SDS011;8303;53.446;9.988;2023-06-26T06:11:59;34.10;;;31.88;;
16387;SDS011;8303;53.446;9.988;2023-06-26T06:14:26;36.28;;;33.72;;
16387;SDS011;8303;53.446;9.988;2023-06-26T06:16:53;35.67;;;33.42;;
16387;SDS011;8303;53.446;9.988;2023-06-26T06:19:21;32.42;;;30.30;;
16387;SDS011;8303;53.446;9.988;2023-06-26T06:21:48;26.80;;;24.75;;
16387;SDS011;8303;53.446;9.988;2023-06-26T06:24:15;30.65;;;28.58;;
16387;SDS011;8303;53.446;9.988;2023-06-26T06:26:43;30.35;;;28.35;;
16387;SDS011;8303;53.446;9.988;2023-06-26T06:29:10;33.97;;;31.45;;
16387;SDS011;8303;53.446;9.988;2023-06-26T06:31:37;28.13;;;26.33;;
16387;SDS011;8303;53.446;9.988;2023-06-26T06:34:04;27.95;;;26.15;;
16387;SDS011;8303;53.446;9.988;2023-06-26T06:36:31;31.50;;;29.17;;
16387;SDS011;8303;53.446;9.988;2023-06-26T06:38:57;23.95;;;22.27;;
16387;SDS011;8303;53.446;9.988;2023-06-26T06:41:24;25.25;;;23.48;;
16387;SDS011;8303;53.446;9.988;2023-06-26T06:43:53;24.15;;;22.48;;
16387;SDS011;8303;53.446;9.988;2023-06-26T06:46:19;22.35;;;20.63;;
16387;SDS011;8303;53.446;9.988;2023-06-26T06:48:46;25.42;;;23.65;;
16387;SDS011;8303;53.446;9.988;2023-06-26T06:51:13;26.05;;;24.02;;
16387;SDS011;8303;53.446;9.988;2023-06-26T06:53:40;22.52;;;20.92;;
16387;SDS011;8303;53.446;9.988;2023-06-26T06:56:07;20.95;;;19.45;;
16387;SDS011;8303;53.446;9.988;2023-06-26T06:58:34;23.35;;;21.75;;
16387;SDS011;8303;53.446;9.988;2023-06-26T07:01:02;20.02;;;18.42;;
16387;SDS011;8303;53.446;9.988;2023-06-26T07:03:29;26.23;;;24.38;;
16387;SDS011;8303;53.446;9.988;2023-06-26T07:05:56;22.98;;;21.27;;
16387;SDS011;8303;53.446;9.988;2023-06-26T07:08:23;23.02;;;21.08;;
16387;SDS011;8303;53.446;9.988;2023-06-26T07:10:50;22.15;;;20.55;;
16387;SDS011;8303;53.446;9.988;2023-06-26T07:13:17;20.73;;;19.27;;
16387;SDS011;8303;53.446;9.988;2023-06-26T07:15:44;22.90;;;21.27;;
16387;SDS011;8303;53.446;9.988;2023-06-26T07:18:14;23.48;;;21.77;;
16387;SDS011;8303;53.446;9.988;2023-06-26T07:20:41;21.20;;;19.70;;
16387;SDS011;8303;53.446;9.988;2023-06-26T07:23:08;20.10;;;18.73;;
16387;SDS011;8303;53.446;9.988;2023-06-26T07:25:35;20.88;;;19.48;;
16387;SDS011;8303;53.446;9.988;2023-06-26T07:28:02;20.30;;;18.90;;
16387;SDS011;8303;53.446;9.988;2023-06-26T07:30:29;24.20;;;22.55;;
16387;SDS011;8303;53.446;9.988;2023-06-26T07:32:56;20.33;;;18.90;;
16387;SDS011;8303;53.446;9.988;2023-06-26T07:35:24;21.73;;;20.23;;
16387;SDS011;8303;53.446;9.988;2023-06-26T07:37:52;21.05;;;19.42;;
16387;SDS011;8303;53.446;9.988;2023-06-26T07:40:19;27.80;;;25.92;;
16387;SDS011;8303;53.446;9.988;2023-06-26T07:42:46;28.58;;;26.60;;
16387;SDS011;8303;53.446;9.988;2023-06-26T07:45:13;29.13;;;27.27;;
16387;SDS011;8303;53.446;9.988;2023-06-26T07:47:40;54.28;;;50.97;;
16387;SDS011;8303;53.446;9.988;2023-06-26T07:50:07;58.72;;;55.30;;
16387;SDS011;8303;53.446;9.988;2023-06-26T07:52:36;55.42;;;52.15;;
16387;SDS011;8303;53.446;9.988;2023-06-26T07:55:03;59.25;;;55.53;;
16387;SDS011;8303;53.446;9.988;2023-06-26T07:57:31;31.15;;;29.05;;
16387;SDS011;8303;53.446;9.988;2023-06-26T07:59:58;35.88;;;33.58;;
16387;SDS011;8303;53.446;9.988;2023-06-26T08:02:25;35.47;;;33.03;;
16387;SDS011;8303;53.446;9.988;2023-06-26T08:04:52;30.30;;;28.40;;
16387;SDS011;8303;53.446;9.988;2023-06-26T08:07:19;24.50;;;22.83;;
16387;SDS011;8303;53.446;9.988;2023-06-26T08:09:47;26.40;;;24.60;;
16387;SDS011;8303;53.446;9.988;2023-06-26T08:12:14;17.48;;;16.08;;
16387;SDS011;8303;53.446;9.988;2023-06-26T08:14:41;17.77;;;16.23;;
16387;SDS011;8303;53.446;9.988;2023-06-26T08:17:07;18.58;;;17.13;;
16387;SDS011;8303;53.446;9.988;2023-06-26T08:19:34;17.42;;;16.20;;
16387;SDS011;8303;53.446;9.988;2023-06-26T08:22:01;20.92;;;19.45;;
16387;SDS011;8303;53.446;9.988;2023-06-26T08:24:28;24.13;;;22.27;;
16387;SDS011;8303;53.446;9.988;2023-06-26T08:26:56;22.25;;;20.25;;
16387;SDS011;8303;53.446;9.988;2023-06-26T08:29:24;19.33;;;17.63;;
16387;SDS011;8303;53.446;9.988;2023-06-26T08:31:50;18.15;;;16.58;;
16387;SDS011;8303;53.446;9.988;2023-06-26T08:34:17;21.77;;;20.08;;
16387;SDS011;8303;53.446;9.988;2023-06-26T08:36:44;18.58;;;16.98;;
16387;SDS011;8303;53.446;9.988;2023-06-26T08:39:11;16.42;;;15.23;;
16387;SDS011;8303;53.446;9.988;2023-06-26T08:41:38;15.95;;;14.85;;
16387;SDS011;8303;53.446;9.988;2023-06-26T08:44:06;18.05;;;16.63;;
16387;SDS011;8303;53.446;9.988;2023-06-26T08:46:33;20.92;;;19.15;;
16387;SDS011;8303;53.446;9.988;2023-06-26T08:49:00;21.23;;;19.63;;
16387;SDS011;8303;53.446;9.988;2023-06-26T08:51:30;21.92;;;20.42;;
16387;SDS011;8303;53.446;9.988;2023-06-26T08:54:00;18.02;;;16.50;;
16387;SDS011;8303;53.446;9.988;2023-06-26T08:56:33;18.35;;;16.80;;
16387;SDS011;8303;53.446;9.988;2023-06-26T08:59:02;23.50;;;21.80;;
16387;SDS011;8303;53.446;9.988;2023-06-26T09:01:32;31.38;;;29.27;;
16387;SDS011;8303;53.446;9.988;2023-06-26T09:03:59;38.75;;;36.22;;
16387;SDS011;8303;53.446;9.988;2023-06-26T09:06:26;41.03;;;38.38;;
16387;SDS011;8303;53.446;9.988;2023-06-26T09:08:53;58.42;;;54.78;;
16387;SDS011;8303;53.446;9.988;2023-06-26T09:11:21;53.67;;;50.30;;
16387;SDS011;8303;53.446;9.988;2023-06-26T09:13:48;73.82;;;69.47;;
16387;SDS011;8303;53.446;9.988;2023-06-26T09:16:15;60.80;;;57.22;;
16387;SDS011;8303;53.446;9.988;2023-06-26T09:18:44;36.38;;;33.97;;
16387;SDS011;8303;53.446;9.988;2023-06-26T09:21:12;36.50;;;33.88;;
16387;SDS011;8303;53.446;9.988;2023-06-26T09:23:40;42.28;;;39.58;;
16387;SDS011;8303;53.446;9.988;2023-06-26T09:26:07;42.10;;;39.33;;
16387;SDS011;8303;53.446;9.988;2023-06-26T09:28:34;29.98;;;27.77;;
16387;SDS011;8303;53.446;9.988;2023-06-26T09:31:01;28.15;;;25.85;;
16387;SDS011;8303;53.446;9.988;2023-06-26T09:33:32;21.10;;;19.50;;
16387;SDS011;8303;53.446;9.988;2023-06-26T09:36:04;26.92;;;24.70;;
16387;SDS011;8303;53.446;9.988;2023-06-26T09:38:32;24.35;;;22.52;;
16387;SDS011;8303;53.446;9.988;2023-06-26T09:41:00;33.60;;;30.95;;
16387;SDS011;8303;53.446;9.988;2023-06-26T09:43:27;34.78;;;32.40;;
16387;SDS011;8303;53.446;9.988;2023-06-26T09:45:54;36.45;;;34.13;;
16387;SDS011;8303;53.446;9.988;2023-06-26T09:48:21;32.40;;;30.13;;
16387;SDS011;8303;53.446;9.988;2023-06-26T09:50:48;26.30;;;24.27;;
16387;SDS011;8303;53.446;9.988;2023-06-26T09:53:16;31.60;;;28.90;;
16387;SDS011;8303;53.446;9.988;2023-06-26T09:55:43;58.30;;;54.55;;
16387;SDS011;8303;53.446;9.988;2023-06-26T09:58:12;66.88;;;62.83;;
16387;SDS011;8303;53.446;9.988;2023-06-26T10:00:40;54.10;;;50.60;;
16387;SDS011;8303;53.446;9.988;2023-06-26T10:03:07;83.57;;;77.90;;
16387;SDS011;8303;53.446;9.988;2023-06-26T10:05:34;27.17;;;25.10;;
16387;SDS011;8303;53.446;9.988;2023-06-26T10:08:01;22.95;;;21.00;;
16387;SDS011;8303;53.446;9.988;2023-06-26T10:10:32;29.50;;;27.00;;
16387;SDS011;8303;53.446;9.988;2023-06-26T10:13:04;40.30;;;37.33;;
16387;SDS011;8303;53.446;9.988;2023-06-26T10:15:37;34.60;;;32.17;;
16387;SDS011;8303;53.446;9.988;2023-06-26T10:18:05;117.15;;;110.15;;
16387;SDS011;8303;53.446;9.988;2023-06-26T10:20:33;505.23;;;473.20;;
16387;SDS011;8303;53.446;9.988;2023-06-26T10:23:00;284.48;;;267.85;;
16387;SDS011;8303;53.446;9.988;2023-06-26T10:25:34;84.32;;;79.25;;
16387;SDS011;8303;53.446;9.988;2023-06-26T10:28:06;1080.45;;;687.40;;
16387;SDS011;8303;53.446;9.988;2023-06-26T10:30:35;289.35;;;274.05;;
16387;SDS011;8303;53.446;9.988;2023-06-26T10:33:05;230.27;;;218.07;;
16387;SDS011;8303;53.446;9.988;2023-06-26T10:35:33;161.70;;;152.57;;
16387;SDS011;8303;53.446;9.988;2023-06-26T10:38:06;150.93;;;142.93;;
16387;SDS011;8303;53.446;9.988;2023-06-26T10:40:41;92.78;;;87.43;;
16387;SDS011;8303;53.446;9.988;2023-06-26T10:43:10;54.58;;;50.85;;
16387;SDS011;8303;53.446;9.988;2023-06-26T10:45:43;55.17;;;51.72;;
16387;SDS011;8303;53.446;9.988;2023-06-26T10:48:13;76.38;;;71.53;;
16387;SDS011;8303;53.446;9.988;2023-06-26T10:50:41;102.18;;;96.20;;
16387;SDS011;8303;53.446;9.988;2023-06-26T10:53:08;146.90;;;138.23;;
16387;SDS011;8303;53.446;9.988;2023-06-26T10:55:42;208.20;;;195.65;;
16387;SDS011;8303;53.446;9.988;2023-06-26T11:01:19;318.67;;;299.17;;
16387;SDS011;8303;53.446;9.988;2023-06-26T11:04:00;412.85;;;386.63;;
16387;SDS011;8303;53.446;9.988;2023-06-26T11:06:31;416.73;;;389.65;;
16387;SDS011;8303;53.446;9.988;2023-06-26T11:09:00;291.80;;;272.50;;
16387;SDS011;8303;53.446;9.988;2023-06-26T11:14:27;231.52;;;212.98;;
16387;SDS011;8303;53.446;9.988;2023-06-26T11:16:55;149.13;;;136.75;;
16387;SDS011;8303;53.446;9.988;2023-06-26T11:19:23;118.22;;;110.20;;
16387;SDS011;8303;53.446;9.988;2023-06-26T11:21:57;80.63;;;75.03;;
16387;SDS011;8303;53.446;9.988;2023-06-26T11:24:25;77.75;;;72.78;;
16387;SDS011;8303;53.446;9.988;2023-06-26T11:26:53;140.95;;;131.93;;
16387;SDS011;8303;53.446;9.988;2023-06-26T11:29:21;126.68;;;119.50;;
16387;SDS011;8303;53.446;9.988;2023-06-26T11:31:48;113.53;;;106.78;;
16387;SDS011;8303;53.446;9.988;2023-06-26T11:34:25;65.57;;;61.40;;
16387;SDS011;8303;53.446;9.988;2023-06-26T11:36:56;115.13;;;108.53;;
16387;SDS011;8303;53.446;9.988;2023-06-26T11:39:23;193.77;;;183.90;;
16387;SDS011;8303;53.446;9.988;2023-06-26T11:41:50;212.27;;;201.10;;
16387;SDS011;8303;53.446;9.988;2023-06-26T11:44:17;176.52;;;167.13;;
16387;SDS011;8303;53.446;9.988;2023-06-26T11:46:46;195.25;;;184.18;;
16387;SDS011;8303;53.446;9.988;2023-06-26T11:49:16;187.70;;;177.65;;
16387;SDS011;8303;53.446;9.988;2023-06-26T11:51:44;153.30;;;145.07;;
16387;SDS011;8303;53.446;9.988;2023-06-26T11:54:13;159.43;;;150.80;;
16387;SDS011;8303;53.446;9.988;2023-06-26T11:56:39;153.55;;;145.18;;
16387;SDS011;8303;53.446;9.988;2023-06-26T11:59:11;118.10;;;111.32;;
16387;SDS011;8303;53.446;9.988;2023-06-26T12:01:39;165.48;;;156.48;;
16387;SDS011;8303;53.446;9.988;2023-06-26T12:04:09;94.72;;;89.32;;
16387;SDS011;8303;53.446;9.988;2023-06-26T12:06:37;136.95;;;129.48;;
16387;SDS011;8303;53.446;9.988;2023-06-26T12:09:07;100.15;;;94.68;;
16387;SDS011;8303;53.446;9.988;2023-06-26T12:11:37;108.38;;;102.47;;
16387;SDS011;8303;53.446;9.988;2023-06-26T12:14:05;105.32;;;99.50;;
16387;SDS011;8303;53.446;9.988;2023-06-26T12:16:33;81.30;;;76.63;;
16387;SDS011;8303;53.446;9.988;2023-06-26T12:19:02;126.20;;;119.28;;
16387;SDS011;8303;53.446;9.988;2023-06-26T12:21:33;133.25;;;126.05;;
16387;SDS011;8303;53.446;9.988;2023-06-26T12:24:20;125.05;;;118.50;;
16387;SDS011;8303;53.446;9.988;2023-06-26T12:26:49;136.75;;;129.40;;
16387;SDS011;8303;53.446;9.988;2023-06-26T12:29:19;104.10;;;98.63;;
16387;SDS011;8303;53.446;9.988;2023-06-26T12:31:48;114.50;;;108.32;;
16387;SDS011;8303;53.446;9.988;2023-06-26T12:34:17;108.03;;;102.03;;
16387;SDS011;8303;53.446;9.988;2023-06-26T12:36:48;85.40;;;80.75;;
16387;SDS011;8303;53.446;9.988;2023-06-26T12:39:16;107.45;;;100.85;;
16387;SDS011;8303;53.446;9.988;2023-06-26T12:41:44;68.03;;;63.95;;
16387;SDS011;8303;53.446;9.988;2023-06-26T12:44:19;59.85;;;56.47;;
16387;SDS011;8303;53.446;9.988;2023-06-26T12:46:47;90.43;;;85.35;;
16387;SDS011;8303;53.446;9.988;2023-06-26T12:49:15;199.75;;;187.40;;
16387;SDS011;8303;53.446;9.988;2023-06-26T12:51:43;91.57;;;85.32;;
16387;SDS011;8303;53.446;9.988;2023-06-26T12:54:11;71.07;;;67.00;;
16387;SDS011;8303;53.446;9.988;2023-06-26T12:56:38;53.28;;;50.10;;
16387;SDS011;8303;53.446;9.988;2023-06-26T12:59:05;56.05;;;52.28;;
16387;SDS011;8303;53.446;9.988;2023-06-26T13:01:32;48.65;;;45.92;;
16387;SDS011;8303;53.446;9.988;2023-06-26T13:03:59;32.05;;;30.13;;
16387;SDS011;8303;53.446;9.988;2023-06-26T13:06:26;50.20;;;47.20;;
16387;SDS011;8303;53.446;9.988;2023-06-26T13:08:53;41.83;;;39.13;;
16387;SDS011;8303;53.446;9.988;2023-06-26T13:11:21;50.33;;;47.42;;
16387;SDS011;8303;53.446;9.988;2023-06-26T13:13:48;19.98;;;18.67;;
16387;SDS011;8303;53.446;9.988;2023-06-26T13:16:15;35.03;;;32.47;;
16387;SDS011;8303;53.446;9.988;2023-06-26T13:18:43;34.28;;;32.15;;
16387;SDS011;8303;53.446;9.988;2023-06-26T13:21:11;29.65;;;27.73;;
16387;SDS011;8303;53.446;9.988;2023-06-26T13:23:38;21.63;;;19.98;;
16387;SDS011;8303;53.446;9.988;2023-06-26T13:26:05;16.42;;;15.13;;
16387;SDS011;8303;53.446;9.988;2023-06-26T13:28:33;57.55;;;53.13;;
16387;SDS011;8303;53.446;9.988;2023-06-26T13:31:00;14.52;;;13.50;;
16387;SDS011;8303;53.446;9.988;2023-06-26T13:33:28;15.55;;;14.23;;
16387;SDS011;8303;53.446;9.988;2023-06-26T13:35:56;16.88;;;15.70;;
16387;SDS011;8303;53.446;9.988;2023-06-26T13:38:24;19.60;;;18.27;;
16387;SDS011;8303;53.446;9.988;2023-06-26T13:40:51;15.52;;;14.27;;
16387;SDS011;8303;53.446;9.988;2023-06-26T13:43:18;19.23;;;17.83;;
16387;SDS011;8303;53.446;9.988;2023-06-26T13:45:48;16.05;;;14.85;;
16387;SDS011;8303;53.446;9.988;2023-06-26T13:48:15;24.75;;;22.95;;
16387;SDS011;8303;53.446;9.988;2023-06-26T13:50:42;31.30;;;29.33;;
16387;SDS011;8303;53.446;9.988;2023-06-26T13:53:09;61.28;;;57.58;;
16387;SDS011;8303;53.446;9.988;2023-06-26T13:55:36;116.15;;;108.05;;
16387;SDS011;8303;53.446;9.988;2023-06-26T13:58:03;74.22;;;69.78;;
16387;SDS011;8303;53.446;9.988;2023-06-26T14:00:30;74.97;;;71.00;;
16387;SDS011;8303;53.446;9.988;2023-06-26T14:03:00;27.00;;;24.88;;
16387;SDS011;8303;53.446;9.988;2023-06-26T14:05:28;42.80;;;40.40;;
16387;SDS011;8303;53.446;9.988;2023-06-26T14:07:55;36.08;;;33.70;;
16387;SDS011;8303;53.446;9.988;2023-06-26T14:10:22;39.67;;;37.20;;
16387;SDS011;8303;53.446;9.988;2023-06-26T14:12:50;55.28;;;52.05;;
16387;SDS011;8303;53.446;9.988;2023-06-26T14:15:17;46.78;;;43.95;;
16387;SDS011;8303;53.446;9.988;2023-06-26T14:17:43;62.15;;;58.75;;
16387;SDS011;8303;53.446;9.988;2023-06-26T14:20:14;58.63;;;55.45;;
16387;SDS011;8303;53.446;9.988;2023-06-26T14:22:41;60.38;;;56.67;;
16387;SDS011;8303;53.446;9.988;2023-06-26T14:25:09;57.13;;;54.00;;
16387;SDS011;8303;53.446;9.988;2023-06-26T14:27:37;72.15;;;67.97;;
16387;SDS011;8303;53.446;9.988;2023-06-26T14:30:05;56.75;;;53.00;;
16387;SDS011;8303;53.446;9.988;2023-06-26T14:32:33;67.68;;;63.90;;
16387;SDS011;8303;53.446;9.988;2023-06-26T14:35:00;65.25;;;61.83;;
16387;SDS011;8303;53.446;9.988;2023-06-26T14:37:29;64.50;;;60.70;;
16387;SDS011;8303;53.446;9.988;2023-06-26T14:39:56;58.03;;;54.63;;
16387;SDS011;8303;53.446;9.988;2023-06-26T14:42:23;51.92;;;49.05;;
16387;SDS011;8303;53.446;9.988;2023-06-26T14:44:50;65.10;;;61.45;;
16387;SDS011;8303;53.446;9.988;2023-06-26T14:47:17;52.60;;;49.65;;
16387;SDS011;8303;53.446;9.988;2023-06-26T14:49:44;64.97;;;61.15;;
16387;SDS011;8303;53.446;9.988;2023-06-26T14:52:11;54.05;;;50.47;;
16387;SDS011;8303;53.446;9.988;2023-06-26T14:54:39;62.33;;;58.85;;
16387;SDS011;8303;53.446;9.988;2023-06-26T14:57:06;50.20;;;47.20;;
16387;SDS011;8303;53.446;9.988;2023-06-26T14:59:33;60.55;;;57.17;;
16387;SDS011;8303;53.446;9.988;2023-06-26T15:02:00;59.75;;;56.50;;
16387;SDS011;8303;53.446;9.988;2023-06-26T15:04:27;49.60;;;46.88;;
16387;SDS011;8303;53.446;9.988;2023-06-26T15:06:56;49.85;;;46.80;;
16387;SDS011;8303;53.446;9.988;2023-06-26T15:09:23;41.33;;;39.05;;
16387;SDS011;8303;53.446;9.988;2023-06-26T15:11:51;11.52;;;10.80;;
16387;SDS011;8303;53.446;9.988;2023-06-26T15:14:18;9.65;;;8.95;;
16387;SDS011;8303;53.446;9.988;2023-06-26T15:16:45;12.32;;;11.60;;
16387;SDS011;8303;53.446;9.988;2023-06-26T15:19:12;13.52;;;12.50;;
16387;SDS011;8303;53.446;9.988;2023-06-26T15:21:39;12.38;;;11.30;;
16387;SDS011;8303;53.446;9.988;2023-06-26T15:24:06;11.25;;;10.45;;
16387;SDS011;8303;53.446;9.988;2023-06-26T15:26:33;26.58;;;24.85;;
16387;SDS011;8303;53.446;9.988;2023-06-26T15:29:02;54.55;;;51.42;;
16387;SDS011;8303;53.446;9.988;2023-06-26T15:31:29;84.13;;;79.15;;
16387;SDS011;8303;53.446;9.988;2023-06-26T15:33:56;75.32;;;71.38;;
16387;SDS011;8303;53.446;9.988;2023-06-26T15:36:23;85.95;;;81.03;;
16387;SDS011;8303;53.446;9.988;2023-06-26T15:38:50;48.67;;;45.97;;
16387;SDS011;8303;53.446;9.988;2023-06-26T15:41:17;48.70;;;45.88;;
16387;SDS011;8303;53.446;9.988;2023-06-26T15:43:44;47.78;;;45.08;;
16387;SDS011;8303;53.446;9.988;2023-06-26T15:46:12;33.80;;;31.92;;
16387;SDS011;8303;53.446;9.988;2023-06-26T15:48:39;54.90;;;51.70;;
16387;SDS011;8303;53.446;9.988;2023-06-26T15:51:06;78.57;;;74.03;;
16387;SDS011;8303;53.446;9.988;2023-06-26T15:53:34;51.63;;;48.85;;
16387;SDS011;8303;53.446;9.988;2023-06-26T15:56:03;67.05;;;63.45;;
16387;SDS011;8303;53.446;9.988;2023-06-26T15:58:32;46.13;;;43.30;;
16387;SDS011;8303;53.446;9.988;2023-06-26T16:00:59;48.65;;;45.75;;
16387;SDS011;8303;53.446;9.988;2023-06-26T16:03:27;77.97;;;73.63;;
16387;SDS011;8303;53.446;9.988;2023-06-26T16:05:54;49.78;;;47.13;;
16387;SDS011;8303;53.446;9.988;2023-06-26T16:08:21;42.55;;;39.85;;
16387;SDS011;8303;53.446;9.988;2023-06-26T16:10:48;54.80;;;51.70;;
16387;SDS011;8303;53.446;9.988;2023-06-26T16:13:15;88.65;;;83.30;;
16387;SDS011;8303;53.446;9.988;2023-06-26T16:15:44;61.30;;;57.80;;
16387;SDS011;8303;53.446;9.988;2023-06-26T16:18:12;40.28;;;38.03;;
16387;SDS011;8303;53.446;9.988;2023-06-26T16:20:40;73.15;;;68.75;;
16387;SDS011;8303;53.446;9.988;2023-06-26T16:23:07;29.48;;;27.65;;
16387;SDS011;8303;53.446;9.988;2023-06-26T16:25:34;106.30;;;99.50;;
16387;SDS011;8303;53.446;9.988;2023-06-26T16:28:01;44.30;;;41.60;;
16387;SDS011;8303;53.446;9.988;2023-06-26T16:30:28;52.42;;;49.25;;
16387;SDS011;8303;53.446;9.988;2023-06-26T16:32:55;52.00;;;49.20;;
16387;SDS011;8303;53.446;9.988;2023-06-26T16:35:24;55.03;;;52.00;;
16387;SDS011;8303;53.446;9.988;2023-06-26T16:37:52;48.53;;;45.80;;
16387;SDS011;8303;53.446;9.988;2023-06-26T16:40:19;32.00;;;30.05;;
16387;SDS011;8303;53.446;9.988;2023-06-26T16:42:46;26.45;;;24.75;;
16387;SDS011;8303;53.446;9.988;2023-06-26T16:45:13;17.52;;;16.42;;
16387;SDS011;8303;53.446;9.988;2023-06-26T16:47:40;21.40;;;19.83;;
16387;SDS011;8303;53.446;9.988;2023-06-26T16:50:07;21.20;;;19.75;;
16387;SDS011;8303;53.446;9.988;2023-06-26T16:52:35;27.88;;;25.83;;
16387;SDS011;8303;53.446;9.988;2023-06-26T16:55:04;45.40;;;42.90;;
16387;SDS011;8303;53.446;9.988;2023-06-26T16:57:31;65.68;;;61.95;;
16387;SDS011;8303;53.446;9.988;2023-06-26T16:59:58;56.20;;;52.92;;
16387;SDS011;8303;53.446;9.988;2023-06-26T17:02:25;46.78;;;44.15;;
16387;SDS011;8303;53.446;9.988;2023-06-26T17:04:53;49.20;;;46.20;;
16387;SDS011;8303;53.446;9.988;2023-06-26T17:07:19;19.83;;;18.58;;
16387;SDS011;8303;53.446;9.988;2023-06-26T17:09:46;21.08;;;19.88;;
16387;SDS011;8303;53.446;9.988;2023-06-26T17:12:14;18.20;;;17.10;;
16387;SDS011;8303;53.446;9.988;2023-06-26T17:14:41;30.65;;;28.75;;
16387;SDS011;8303;53.446;9.988;2023-06-26T17:17:08;53.92;;;50.95;;
16387;SDS011;8303;53.446;9.988;2023-06-26T17:19:35;53.17;;;50.28;;
16387;SDS011;8303;53.446;9.988;2023-06-26T17:22:02;55.55;;;52.42;;
16387;SDS011;8303;53.446;9.988;2023-06-26T17:24:30;69.90;;;66.13;;
16387;SDS011;8303;53.446;9.988;2023-06-26T17:27:07;22.67;;;21.25;;
16387;SDS011;8303;53.446;9.988;2023-06-26T17:29:36;31.30;;;29.35;;
16387;SDS011;8303;53.446;9.988;2023-06-26T17:32:04;48.03;;;45.03;;
16387;SDS011;8303;53.446;9.988;2023-06-26T17:34:32;70.47;;;66.55;;
16387;SDS011;8303;53.446;9.988;2023-06-26T17:36:59;79.28;;;75.05;;
16387;SDS011;8303;53.446;9.988;2023-06-26T17:39:25;56.58;;;53.35;;
16387;SDS011;8303;53.446;9.988;2023-06-26T17:41:53;28.88;;;27.15;;
16387;SDS011;8303;53.446;9.988;2023-06-26T17:44:20;58.50;;;54.85;;
16387;SDS011;8303;53.446;9.988;2023-06-26T17:46:53;91.43;;;86.07;;
16387;SDS011;8303;53.446;9.988;2023-06-26T17:49:20;63.33;;;59.95;;
16387;SDS011;8303;53.446;9.988;2023-06-26T17:51:47;30.08;;;27.90;;
16387;SDS011;8303;53.446;9.988;2023-06-26T17:54:14;63.03;;;59.40;;
16387;SDS011;8303;53.446;9.988;2023-06-26T17:56:42;69.72;;;66.00;;
16387;SDS011;8303;53.446;9.988;2023-06-26T17:59:11;64.63;;;60.80;;
16387;SDS011;8303;53.446;9.988;2023-06-26T18:01:38;111.53;;;105.13;;
16387;SDS011;8303;53.446;9.988;2023-06-26T18:04:07;77.97;;;73.80;;
16387;SDS011;8303;53.446;9.988;2023-06-26T18:06:34;75.40;;;71.35;;
16387;SDS011;8303;53.446;9.988;2023-06-26T18:09:01;86.80;;;82.22;;
16387;SDS011;8303;53.446;9.988;2023-06-26T18:11:29;84.93;;;79.97;;
16387;SDS011;8303;53.446;9.988;2023-06-26T18:13:56;76.00;;;71.78;;
16387;SDS011;8303;53.446;9.988;2023-06-26T18:16:24;76.07;;;71.97;;
16387;SDS011;8303;53.446;9.988;2023-06-26T18:18:51;84.70;;;80.15;;
16387;SDS011;8303;53.446;9.988;2023-06-26T18:21:19;65.40;;;61.65;;
16387;SDS011;8303;53.446;9.988;2023-06-26T18:23:47;60.60;;;56.53;;
16387;SDS011;8303;53.446;9.988;2023-06-26T18:26:15;65.38;;;61.40;;
16387;SDS011;8303;53.446;9.988;2023-06-26T18:28:43;71.68;;;66.68;;
16387;SDS011;8303;53.446;9.988;2023-06-26T18:31:11;96.03;;;90.60;;
16387;SDS011;8303;53.446;9.988;2023-06-26T18:33:38;111.03;;;104.82;;
16387;SDS011;8303;53.446;9.988;2023-06-26T18:36:05;117.68;;;109.82;;
16387;SDS011;8303;53.446;9.988;2023-06-26T18:38:35;55.92;;;52.45;;
16387;SDS011;8303;53.446;9.988;2023-06-26T18:41:02;42.35;;;39.53;;
16387;SDS011;8303;53.446;9.988;2023-06-26T18:43:29;76.40;;;71.53;;
16387;SDS011;8303;53.446;9.988;2023-06-26T18:45:56;64.57;;;60.47;;
16387;SDS011;8303;53.446;9.988;2023-06-26T18:48:23;53.05;;;50.08;;
16387;SDS011;8303;53.446;9.988;2023-06-26T18:50:50;54.30;;;51.03;;
16387;SDS011;8303;53.446;9.988;2023-06-26T18:53:17;55.38;;;52.03;;
16387;SDS011;8303;53.446;9.988;2023-06-26T18:55:46;49.50;;;46.20;;
16387;SDS011;8303;53.446;9.988;2023-06-26T18:58:13;51.90;;;48.63;;
16387;SDS011;8303;53.446;9.988;2023-06-26T19:00:40;58.08;;;54.42;;
16387;SDS011;8303;53.446;9.988;2023-06-26T19:03:07;62.88;;;59.22;;
16387;SDS011;8303;53.446;9.988;2023-06-26T19:05:33;115.05;;;108.65;;
16387;SDS011;8303;53.446;9.988;2023-06-26T19:08:00;75.85;;;71.40;;
16387;SDS011;8303;53.446;9.988;2023-06-26T19:10:27;82.43;;;77.68;;
16387;SDS011;8303;53.446;9.988;2023-06-26T19:12:56;120.78;;;114.03;;
16387;SDS011;8303;53.446;9.988;2023-06-26T19:15:23;115.93;;;109.32;;
16387;SDS011;8303;53.446;9.988;2023-06-26T19:17:50;119.65;;;112.78;;
16387;SDS011;8303;53.446;9.988;2023-06-26T19:20:17;99.22;;;93.90;;
16387;SDS011;8303;53.446;9.988;2023-06-26T19:22:44;150.07;;;142.15;;
16387;SDS011;8303;53.446;9.988;2023-06-26T19:25:11;105.75;;;99.80;;